Time;durP1;ratioP1;P1;durP2;ratioP2;P2;SDS_P1;SDS_P2;PMS_P1;PMS_P2;Temp;Humidity;BMP_temperature;BMP_pressure;BME280_temperature;BME280_humidity;BME280_pressure;Samples;Min_cycle;Max_cycle;Signal;HPM_P1;HPM_P2
2022/08/05 00:00:31;;;;;;;9.85;6.13;;;;;;;16.07;96.21;95123.81;5079996;28;20174;-67
2022/08/05 00:02:58;;;;;;;7.63;5.97;;;;;;;16.01;96.23;95116.97;5068674;28;20032;-67
2022/08/05 00:05:25;;;;;;;10.68;6.15;;;;;;;15.98;96.28;95114.84;5081908;28;20032;-67
2022/08/05 00:08:12;;;;;;;8.38;5.55;;;;;;;15.95;97.10;95115.38;5078817;28;20047;-67
2022/08/05 00:10:59;;;;;;;7.90;5.63;;;;;;;15.89;97.40;95111.94;5076909;28;20052;-67
2022/08/05 00:13:38;;;;;;;6.63;5.35;;;;;;;15.91;97.10;95115.09;5062711;28;20048;-67
2022/08/05 00:16:12;;;;;;;7.80;5.30;;;;;;;15.89;97.35;95105.91;5078106;28;20121;-67
2022/08/05 00:18:46;;;;;;;5.72;4.72;;;;;;;15.88;97.79;95105.09;5074658;28;20088;-67
2022/08/05 00:21:15;;;;;;;7.45;4.93;;;;;;;15.88;98.01;95106.94;5091555;28;20171;-67
2022/08/05 00:23:44;;;;;;;7.65;4.82;;;;;;;15.88;98.03;95110.34;5094163;28;20044;-67
2022/08/05 00:26:30;;;;;;;5.95;5.13;;;;;;;15.81;99.26;95105.34;5087407;28;20032;-67
2022/08/05 00:28:57;;;;;;;6.25;5.53;;;;;;;15.86;99.62;95102.75;5078011;28;20043;-67
2022/08/05 00:31:24;;;;;;;6.22;5.30;;;;;;;15.91;99.86;95109.06;5089379;28;20048;-67
2022/08/05 00:34:11;;;;;;;6.43;5.28;;;;;;;15.88;100.00;95109.56;5092787;28;20183;-67
2022/08/05 00:36:58;;;;;;;6.75;5.22;;;;;;;15.85;100.00;95116.13;5093233;28;20101;-67
2022/08/05 00:39:41;;;;;;;13.02;6.40;;;;;;;15.91;100.00;95109.84;5097744;28;20125;-67
2022/08/05 00:42:35;;;;;;;7.40;5.70;;;;;;;15.91;100.00;95109.84;5095325;28;20049;-67
2022/08/05 00:45:06;;;;;;;9.48;5.80;;;;;;;15.91;100.00;95109.06;5091661;28;20044;-67
2022/08/05 00:47:37;;;;;;;8.23;5.97;;;;;;;15.81;99.93;95089.59;5092855;28;20048;-67
2022/08/05 00:50:24;;;;;;;7.43;6.20;;;;;;;15.85;100.00;95106.41;5097687;28;20044;-67
2022/08/05 00:52:52;;;;;;;7.05;5.78;;;;;;;15.77;100.00;95103.47;5094110;28;20046;-67
2022/08/05 00:55:22;;;;;;;7.32;6.32;;;;;;;15.64;100.00;95099.44;5099403;28;20108;-67
2022/08/05 00:58:09;;;;;;;7.55;6.05;;;;;;;15.62;100.00;95102.31;5087652;28;20047;-68
2022/08/05 01:00:37;;;;;;;8.73;5.75;;;;;;;15.64;100.00;95105.50;5089781;28;20043;-67
2022/08/05 01:03:04;;;;;;;8.18;5.60;;;;;;;15.52;99.62;95102.31;5085820;28;20039;-67
2022/08/05 01:05:34;;;;;;;13.98;5.90;;;;;;;15.49;99.95;95108.84;5082506;28;20058;-68
2022/08/05 01:08:01;;;;;;;8.00;5.15;;;;;;;15.27;100.00;95089.84;5083409;28;20127;-67
2022/08/05 01:11:01;;;;;;;8.82;5.47;;;;;;;15.41;100.00;95111.97;5083574;28;20133;-67
2022/08/05 01:13:49;;;;;;;7.85;5.25;;;;;;;15.42;100.00;95118.00;5087215;28;20736;-68
2022/08/05 01:17:09;;;;;;;7.07;5.57;;;;;;;15.32;100.00;95113.44;5093299;28;20048;-68
2022/08/05 01:19:47;;;;;;;10.48;4.97;;;;;;;15.21;100.00;95106.56;5080406;28;20627;-68
2022/08/05 01:22:59;;;;;;;7.75;5.82;;;;;;;15.06;100.00;95102.81;5076158;28;20052;-67
2022/08/05 01:26:07;;;;;;;7.85;6.45;;;;;;;14.92;100.00;95109.53;5086249;28;20039;-68
2022/08/05 01:28:49;;;;;;;9.93;5.35;;;;;;;14.87;100.00;95106.84;5093342;28;20059;-67
2022/08/05 01:31:33;;;;;;;11.93;6.20;;;;;;;14.83;100.00;95111.03;5082656;28;20109;-67
2022/08/05 01:34:22;;;;;;;6.47;5.68;;;;;;;14.79;100.00;95104.72;5085534;28;20048;-68
2022/08/05 01:37:08;;;;;;;7.55;5.80;;;;;;;14.73;100.00;95117.00;5087454;28;20050;-67
2022/08/05 01:39:46;;;;;;;6.18;5.43;;;;;;;14.74;100.00;95112.53;5089999;28;20126;-67
2022/08/05 01:42:18;;;;;;;9.35;5.22;;;;;;;14.66;100.00;95111.94;5083897;28;20040;-67
2022/08/05 01:44:47;;;;;;;6.75;5.18;;;;;;;14.61;100.00;95114.50;5091870;28;20059;-67
2022/08/05 01:47:21;;;;;;;7.18;5.32;;;;;;;14.60;100.00;95112.91;5080763;28;20032;-67
2022/08/05 01:49:52;;;;;;;8.77;5.72;;;;;;;14.60;100.00;95105.06;5083568;28;20051;-67
2022/08/05 01:52:30;;;;;;;6.68;5.45;;;;;;;14.57;100.00;95110.78;5081378;28;20054;-67
2022/08/05 01:55:02;;;;;;;6.82;5.55;;;;;;;14.59;100.00;95111.34;5080484;28;20035;-67
2022/08/05 01:57:32;;;;;;;10.38;5.85;;;;;;;14.62;100.00;95103.00;5083072;28;20081;-67
2022/08/05 02:00:20;;;;;;;7.38;6.18;;;;;;;14.65;100.00;95104.31;5072443;28;20036;-67
2022/08/05 02:03:24;;;;;;;7.68;6.47;;;;;;;14.65;100.00;95109.56;5081277;28;20168;-67
2022/08/05 02:06:00;;;;;;;9.50;6.60;;;;;;;14.59;100.00;95105.31;5087829;28;20052;-67
2022/08/05 02:08:47;;;;;;;6.43;5.63;;;;;;;14.59;100.00;95100.88;5079357;28;20048;-67
2022/08/05 02:11:30;;;;;;;10.68;5.57;;;;;;;14.55;100.00;95097.16;5088563;28;20736;-67
2022/08/05 02:14:11;;;;;;;7.65;5.95;;;;;;;14.50;100.00;95095.25;5083430;28;20069;-67
2022/08/05 02:16:45;;;;;;;6.47;5.47;;;;;;;14.51;100.00;95094.22;5089797;28;20052;-67
2022/08/05 02:19:27;;;;;;;7.53;5.53;;;;;;;14.53;100.00;95101.81;5080612;28;20040;-67
2022/08/05 02:22:14;;;;;;;9.60;5.30;;;;;;;14.51;100.00;95093.41;5088012;28;20119;-67
2022/08/05 02:24:55;;;;;;;6.15;5.53;;;;;;;14.51;100.00;95098.66;5086636;28;20027;-67
2022/08/05 02:27:27;;;;;;;6.18;4.93;;;;;;;14.55;100.00;95105.00;5091386;28;20671;-67
2022/08/05 02:30:16;;;;;;;7.65;5.80;;;;;;;14.60;100.00;95097.19;5080417;28;20032;-67
2022/08/05 02:32:48;;;;;;;6.47;5.20;;;;;;;14.65;100.00;95099.88;5084241;28;20051;-67
2022/08/05 02:35:19;;;;;;;6.00;4.95;;;;;;;14.61;100.00;95098.78;5086823;28;20700;-67
2022/08/05 02:37:57;;;;;;;6.70;5.43;;;;;;;14.62;100.00;95105.63;5084643;28;20779;-67
2022/08/05 02:40:26;;;;;;;6.82;5.70;;;;;;;14.58;100.00;95094.03;5086006;28;20120;-67
2022/08/05 02:42:55;;;;;;;8.93;5.82;;;;;;;14.60;100.00;95102.44;5089141;28;20039;-67
2022/08/05 02:45:24;;;;;;;7.28;5.93;;;;;;;14.58;100.00;95103.75;5084196;28;21464;-67
2022/08/05 02:47:53;;;;;;;9.65;6.45;;;;;;;14.43;100.00;95106.97;5091087;28;20105;-67
2022/08/05 02:50:41;;;;;;;7.45;5.72;;;;;;;14.31;100.00;95104.50;5086162;28;20108;-67
2022/08/05 02:53:11;;;;;;;6.30;5.22;;;;;;;14.20;100.00;95100.22;5080731;28;20043;-67
2022/08/05 02:55:49;;;;;;;8.20;5.65;;;;;;;14.14;100.00;95099.38;5086643;28;20055;-67
2022/08/05 02:58:26;;;;;;;11.57;6.15;;;;;;;14.00;100.00;95100.78;5088961;28;20040;-67
2022/08/05 03:01:00;;;;;;;10.63;5.53;;;;;;;13.96;100.00;95100.50;5089426;28;20052;-66
2022/08/05 03:03:29;;;;;;;11.38;5.95;;;;;;;13.85;100.00;95102.19;5088389;28;20043;-66
2022/08/05 03:06:16;;;;;;;8.50;6.57;;;;;;;13.84;100.00;95100.59;5070632;28;20861;-67
2022/08/05 03:09:04;;;;;;;12.93;6.03;;;;;;;13.76;100.00;95103.66;5082942;28;20101;-66
2022/08/05 03:11:33;;;;;;;7.10;5.88;;;;;;;13.76;100.00;95106.28;5080102;28;20047;-66
2022/08/05 03:14:20;;;;;;;7.70;6.13;;;;;;;13.72;100.00;95107.78;5089096;28;20040;-67
2022/08/05 03:16:47;;;;;;;8.43;5.65;;;;;;;13.71;100.00;95106.22;5086685;28;20040;-66
2022/08/05 03:19:14;;;;;;;11.30;6.22;;;;;;;13.65;100.00;95107.16;5091553;28;20042;-65
2022/08/05 03:22:00;;;;;;;12.18;6.20;;;;;;;13.68;100.00;95117.16;5084894;28;20833;-67
2022/08/05 03:24:28;;;;;;;11.93;5.93;;;;;;;13.67;100.00;95110.38;5084216;28;20117;-67
2022/08/05 03:26:59;;;;;;;9.23;6.95;;;;;;;13.69;100.00;95113.53;5082614;28;20059;-67
2022/08/05 03:29:27;;;;;;;8.10;6.53;;;;;;;13.50;100.00;95079.78;5088322;28;20050;-67
2022/08/05 03:32:14;;;;;;;12.02;7.47;;;;;;;13.60;100.00;95104.50;5082998;28;20039;-67
2022/08/05 03:34:42;;;;;;;11.82;8.18;;;;;;;13.58;100.00;95097.69;5087163;28;20052;-66
2022/08/05 03:37:18;;;;;;;15.75;8.02;;;;;;;13.60;100.00;95096.66;5085934;28;20040;-67
2022/08/05 03:39:54;;;;;;;16.85;9.82;;;;;;;13.66;100.00;95103.53;5085618;28;20102;-67
2022/08/05 03:42:28;;;;;;;17.63;9.68;;;;;;;13.69;100.00;95108.28;5081753;28;20052;-67
2022/08/05 03:44:58;;;;;;;14.75;10.30;;;;;;;13.77;100.00;95110.47;5075015;28;20059;-68
2022/08/05 03:47:29;;;;;;;21.90;10.10;;;;;;;13.77;100.00;95105.22;5071682;28;20035;-68
2022/08/05 03:50:01;;;;;;;16.83;9.38;;;;;;;13.83;100.00;95108.69;5077768;28;20108;-68
2022/08/05 03:52:32;;;;;;;15.23;10.05;;;;;;;13.87;100.00;95110.59;5072792;28;20505;-67
2022/08/05 03:55:27;;;;;;;14.70;10.75;;;;;;;13.96;100.00;95109.13;5068512;28;20033;-67
2022/08/05 03:58:16;;;;;;;15.77;9.80;;;;;;;14.08;100.00;95110.81;5086887;27;20050;-67
2022/08/05 04:00:44;;;;;;;20.05;9.85;;;;;;;14.19;100.00;95107.28;5084323;28;20670;-67
2022/08/05 04:03:18;;;;;;;10.82;8.30;;;;;;;14.28;100.00;95100.56;5087363;27;20131;-68
2022/08/05 04:05:56;;;;;;;15.73;8.40;;;;;;;14.38;100.00;95104.31;5082772;28;20112;-67
2022/08/05 04:08:26;;;;;;;11.18;6.88;;;;;;;14.48;100.00;95105.19;5085486;28;20039;-68
2022/08/05 04:11:03;;;;;;;12.57;8.43;;;;;;;14.53;100.00;95096.56;5083652;28;20044;-68
2022/08/05 04:13:31;;;;;;;11.48;8.18;;;;;;;14.74;100.00;95104.66;5088453;28;20144;-68
2022/08/05 04:16:17;;;;;;;10.27;6.68;;;;;;;14.86;100.00;95105.28;5082423;28;20036;-68
2022/08/05 04:18:52;;;;;;;17.33;7.90;;;;;;;14.95;100.00;95108.25;5090120;28;20040;-68
2022/08/05 04:21:20;;;;;;;14.18;7.82;;;;;;;15.06;100.00;95110.66;5084876;28;20123;-70
2022/08/05 04:24:07;;;;;;;10.77;7.93;;;;;;;15.20;100.00;95118.13;5087699;28;20063;-71
2022/08/05 04:26:48;;;;;;;10.73;7.32;;;;;;;15.27;100.00;95116.06;5073591;28;20127;-70
2022/08/05 04:29:15;;;;;;;18.30;7.68;;;;;;;15.32;100.00;95115.28;5079482;28;20046;-70
2022/08/05 04:31:42;;;;;;;8.95;7.32;;;;;;;15.41;100.00;95104.09;5096549;28;20068;-70
2022/08/05 04:34:09;;;;;;;12.90;6.88;;;;;;;15.47;100.00;95100.44;5099973;28;20047;-70
2022/08/05 04:36:56;;;;;;;13.15;7.53;;;;;;;15.69;100.00;95107.34;5092972;28;20048;-70
2022/08/05 04:39:24;;;;;;;10.55;6.82;;;;;;;15.83;100.00;95108.50;5094700;28;20677;-73
2022/08/05 04:41:53;;;;;;;14.88;7.55;;;;;;;16.01;100.00;95114.34;5092563;28;20040;-71
2022/08/05 04:44:21;;;;;;;10.07;6.95;;;;;;;16.07;100.00;95108.06;5095571;28;20050;-70
2022/08/05 04:46:59;;;;;;;12.15;7.68;;;;;;;16.27;100.00;95109.16;5093356;28;20155;-71
2022/08/05 04:49:36;;;;;;;10.27;7.95;;;;;;;16.40;100.00;95113.91;5090930;28;20048;-71
2022/08/05 04:52:23;;;;;;;9.57;7.60;;;;;;;16.48;100.00;95108.16;5076146;28;20035;-71
2022/08/05 04:54:54;;;;;;;12.32;8.25;;;;;;;16.57;100.00;95101.31;5096957;28;20050;-71
2022/08/05 04:57:22;;;;;;;8.65;7.55;;;;;;;16.77;100.00;95110.28;5097204;28;20068;-72
2022/08/05 04:59:57;;;;;;;9.52;6.97;;;;;;;16.89;100.00;95118.72;5075582;28;20110;-71
2022/08/05 05:02:25;;;;;;;11.02;7.35;;;;;;;16.94;100.00;95104.78;5098191;28;20035;-71
2022/08/05 05:05:04;;;;;;;14.65;7.78;;;;;;;17.11;99.09;95096.63;5093722;28;20036;-71
2022/08/05 05:07:52;;;;;;;13.30;7.70;;;;;;;17.22;98.80;95103.44;5095359;28;20031;-72
2022/08/05 05:10:28;;;;;;;7.88;6.18;;;;;;;17.39;98.40;95109.22;5089826;28;20128;-73
2022/08/05 05:12:55;;;;;;;11.63;8.48;;;;;;;17.45;97.28;95109.16;5096215;28;20126;-73
2022/08/05 05:15:24;;;;;;;9.60;7.03;;;;;;;17.41;96.93;95113.41;5075560;28;20096;-73
2022/08/05 05:18:15;;;;;;;10.63;7.97;;;;;;;17.49;97.83;95108.38;5109772;27;20062;-73
2022/08/05 05:20:59;;;;;;;10.63;6.57;;;;;;;17.58;93.13;95104.13;5092910;28;20221;-73
2022/08/05 05:23:26;;;;;;;7.90;5.38;;;;;;;17.69;91.14;95104.91;5096649;28;20124;-73
2022/08/05 05:26:12;;;;;;;8.77;5.90;;;;;;;17.85;90.99;95107.50;5075587;28;20027;-73
2022/08/05 05:28:40;;;;;;;12.25;6.85;;;;;;;17.94;90.66;95105.91;5093533;28;20051;-73
2022/08/05 05:31:10;;;;;;;8.13;6.55;;;;;;;18.07;91.01;95107.94;5097116;28;20147;-73
2022/08/05 05:33:38;;;;;;;7.40;5.82;;;;;;;18.16;90.17;95097.63;5090387;28;20054;-73
2022/08/05 05:36:25;;;;;;;7.60;6.35;;;;;;;18.30;90.11;95103.09;5091192;28;20032;-73
2022/08/05 05:38:55;;;;;;;9.30;7.07;;;;;;;18.32;90.78;95107.00;5079094;28;20047;-73
2022/08/05 05:41:23;;;;;;;8.27;6.60;;;;;;;18.43;91.58;95099.81;5091129;28;20905;-73
2022/08/05 05:44:05;;;;;;;10.43;6.95;;;;;;;18.52;90.13;95106.09;5093111;28;20071;-73
2022/08/05 05:46:52;;;;;;;13.80;7.20;;;;;;;18.72;88.63;95104.38;5093548;28;20483;-73
2022/08/05 05:49:21;;;;;;;9.32;7.22;;;;;;;18.72;86.98;95104.38;5097619;28;20127;-73
2022/08/05 05:51:49;;;;;;;7.68;6.32;;;;;;;18.86;86.55;95112.50;5094435;28;20055;-73
2022/08/05 05:54:19;;;;;;;8.80;6.93;;;;;;;18.79;86.24;95104.84;5095439;28;20055;-74
2022/08/05 05:56:46;;;;;;;9.75;7.75;;;;;;;18.96;86.67;95108.97;5059249;28;20621;-73
2022/08/05 05:59:13;;;;;;;8.57;6.65;;;;;;;19.09;86.43;95113.63;5093142;28;20051;-73
2022/08/05 06:01:41;;;;;;;9.07;6.70;;;;;;;19.31;86.17;95115.00;5075525;28;20035;-73
2022/08/05 06:04:23;;;;;;;9.50;7.40;;;;;;;19.52;84.20;95124.31;5093685;28;20040;-73
2022/08/05 06:06:50;;;;;;;12.70;7.28;;;;;;;19.66;83.88;95117.28;5067550;28;20437;-73
2022/08/05 06:09:17;;;;;;;14.07;7.90;;;;;;;19.64;81.13;95108.88;5063248;28;20171;-73
2022/08/05 06:12:05;;;;;;;9.10;7.28;;;;;;;19.67;81.66;95113.56;5084281;28;20040;-74
2022/08/05 06:14:35;;;;;;;11.52;7.10;;;;;;;19.75;80.64;95120.09;5065656;28;20551;-73
2022/08/05 06:17:05;;;;;;;12.38;7.47;;;;;;;19.86;81.05;95123.41;5088111;28;20032;-73
2022/08/05 06:19:52;;;;;;;13.30;7.07;;;;;;;20.02;81.74;95116.91;5088118;28;20043;-73
2022/08/05 06:22:27;;;;;;;11.50;7.20;;;;;;;20.17;81.40;95120.44;5070671;28;20668;-73
2022/08/05 06:24:55;;;;;;;10.80;7.40;;;;;;;20.32;80.93;95120.22;5087849;28;20632;-73
2022/08/05 06:27:22;;;;;;;10.80;8.23;;;;;;;20.48;80.25;95126.09;5069266;28;20036;-73
2022/08/05 06:30:14;;;;;;;11.18;7.63;;;;;;;20.70;79.26;95125.53;5087541;28;20059;-73
2022/08/05 06:32:47;;;;;;;8.57;7.00;;;;;;;20.84;79.21;95114.22;5088903;28;20108;-69
2022/08/05 06:35:17;;;;;;;8.48;6.55;;;;;;;21.01;77.84;95125.06;5086568;28;20044;-67
2022/08/05 06:38:04;;;;;;;9.65;7.40;;;;;;;21.05;76.70;95118.13;5089994;28;20051;-67
2022/08/05 06:40:38;;;;;;;9.20;7.50;;;;;;;21.24;76.56;95119.94;5082641;28;20131;-65
2022/08/05 06:43:11;;;;;;;9.38;7.13;;;;;;;21.38;75.44;95120.75;5087199;28;20059;-66
2022/08/05 06:45:58;;;;;;;14.82;7.20;;;;;;;21.56;74.68;95111.94;5077632;28;20138;-66
2022/08/05 06:48:33;;;;;;;9.65;7.22;;;;;;;21.75;73.77;95121.66;5080973;28;20036;-65
2022/08/05 06:51:21;;;;;;;11.38;6.25;;;;;;;21.92;73.70;95124.53;5068888;27;20048;-67
2022/08/05 06:54:00;;;;;;;16.67;6.80;;;;;;;22.13;73.04;95113.53;5084134;28;20051;-67
2022/08/05 06:56:28;;;;;;;9.27;6.03;;;;;;;22.26;73.34;95112.72;5079828;28;20044;-67
2022/08/05 06:58:58;;;;;;;7.25;6.50;;;;;;;22.44;72.49;95111.03;5085271;28;20492;-66
2022/08/05 07:01:26;;;;;;;10.07;6.80;;;;;;;22.63;71.31;95110.84;5072629;28;20044;-66
2022/08/05 07:04:01;;;;;;;10.43;7.13;;;;;;;22.78;71.32;95108.94;5084881;28;20059;-65
2022/08/05 07:06:29;;;;;;;11.82;7.35;;;;;;;22.83;70.46;95109.63;5084149;28;20052;-66
2022/08/05 07:08:58;;;;;;;7.50;6.05;;;;;;;22.99;69.68;95101.28;5083526;28;20051;-66
2022/08/05 07:11:30;;;;;;;9.45;6.03;;;;;;;23.10;69.28;95113.22;5075305;28;20072;-66
2022/08/05 07:16:59;;;;;;;10.20;6.22;;;;;;;23.25;68.78;95114.75;5080739;27;20725;-66
2022/08/05 07:19:47;;;;;;;9.80;6.40;;;;;;;23.45;66.01;95116.88;5082130;28;20032;-72
2022/08/05 07:22:38;;;;;;;8.25;5.90;;;;;;;23.61;65.82;95111.16;5085751;28;20449;-73
2022/08/05 07:25:08;;;;;;;8.63;5.68;;;;;;;23.67;64.09;95104.63;5082512;28;20036;-71
2022/08/05 07:27:56;;;;;;;6.93;4.90;;;;;;;23.79;63.76;95107.47;5064841;28;21317;-72
2022/08/05 07:30:34;;;;;;;12.65;5.55;;;;;;;23.79;63.45;95118.13;5078503;28;20195;-72
2022/08/05 07:33:09;;;;;;;10.07;5.47;;;;;;;23.98;63.94;95109.13;5071429;28;20466;-72
2022/08/05 07:35:44;;;;;;;5.65;4.78;;;;;;;23.95;62.54;95109.72;5074079;28;20138;-73
2022/08/05 07:38:32;;;;;;;6.75;5.32;;;;;;;24.23;59.83;95115.59;5069559;28;20048;-74
2022/08/05 07:41:13;;;;;;;9.40;4.97;;;;;;;24.32;59.86;95107.63;5089942;28;20064;-74
2022/08/05 07:44:01;;;;;;;8.27;5.13;;;;;;;24.53;61.99;95113.94;5072883;28;20055;-73
2022/08/05 07:46:31;;;;;;;8.13;5.03;;;;;;;24.68;56.11;95110.00;5086970;28;20048;-67
2022/08/05 07:49:00;;;;;;;7.75;5.28;;;;;;;24.71;55.07;95097.97;5087092;28;20926;-74
2022/08/05 07:51:33;;;;;;;7.15;4.53;;;;;;;24.93;56.02;95102.31;5074865;28;20082;-74
2022/08/05 07:54:04;;;;;;;5.28;4.75;;;;;;;25.24;58.19;95115.47;5061589;28;20054;-74
2022/08/05 07:56:31;;;;;;;7.97;5.35;;;;;;;25.37;57.97;95111.84;5085474;28;20032;-74
2022/08/05 07:59:18;;;;;;;7.40;4.80;;;;;;;25.58;56.89;95113.78;5060389;28;20628;-74
2022/08/05 08:01:56;;;;;;;5.30;4.13;;;;;;;25.50;55.75;95111.94;5061667;28;20048;-74
2022/08/05 08:04:24;;;;;;;10.80;5.20;;;;;;;25.52;54.93;95107.09;5082466;28;20043;-73
2022/08/05 08:07:04;;;;;;;10.32;4.30;;;;;;;25.51;55.88;95108.16;5065539;28;20043;-74
2022/08/05 08:09:33;;;;;;;6.07;4.13;;;;;;;25.61;53.30;95107.06;5068819;28;20036;-74
2022/08/05 08:12:00;;;;;;;6.38;4.43;;;;;;;25.68;52.05;95108.09;5100965;28;20044;-74
2022/08/05 08:14:44;;;;;;;4.47;3.75;;;;;;;25.84;49.11;95118.22;5071206;28;20105;-75
2022/08/05 08:17:13;;;;;;;5.18;3.65;;;;;;;26.05;49.54;95110.31;5090830;28;20060;-74
2022/08/05 08:19:44;;;;;;;12.75;4.78;;;;;;;26.10;50.42;95113.56;5080656;28;20036;-75
2022/08/05 08:22:31;;;;;;;7.78;4.65;;;;;;;26.26;50.42;95116.47;5079038;28;20334;-75
2022/08/05 08:24:59;;;;;;;12.35;5.35;;;;;;;26.57;49.56;95104.63;5080877;28;20043;-75
2022/08/05 08:27:30;;;;;;;8.15;4.60;;;;;;;26.80;48.39;95107.78;5059562;28;20051;-75
2022/08/05 08:30:13;;;;;;;7.38;4.15;;;;;;;26.93;48.15;95100.56;5059835;28;21129;-75
2022/08/05 08:33:00;;;;;;;7.20;3.95;;;;;;;27.26;46.75;95113.97;5080156;28;20040;-75
2022/08/05 08:35:35;;;;;;;8.65;3.65;;;;;;;27.17;46.52;95105.25;5068749;28;20432;-75
2022/08/05 08:38:07;;;;;;;7.53;4.25;;;;;;;27.29;45.29;95104.50;5079661;28;20304;-75
2022/08/05 08:40:42;;;;;;;6.53;3.83;;;;;;;27.49;44.55;95102.88;5087564;28;20036;-75
2022/08/05 08:43:18;;;;;;;9.90;4.35;;;;;;;27.61;44.05;95108.22;5070073;28;20116;-75
2022/08/05 08:46:06;;;;;;;12.68;4.50;;;;;;;27.43;42.88;95102.31;5082720;28;20036;-75
2022/08/05 08:48:45;;;;;;;11.23;4.07;;;;;;;27.70;43.28;95093.97;5060589;28;20123;-75
2022/08/05 08:51:34;;;;;;;6.00;3.65;;;;;;;27.63;42.15;95095.28;5080299;28;20032;-75
2022/08/05 08:54:20;;;;;;;4.60;3.35;;;;;;;27.98;40.42;95104.81;5078250;28;20044;-74
2022/08/05 08:56:53;;;;;;;9.05;4.28;;;;;;;28.23;38.92;95105.56;5097128;27;20044;-75
2022/08/05 08:59:23;;;;;;;6.68;3.17;;;;;;;28.32;38.68;95103.53;5081826;28;20032;-75
2022/08/05 09:02:00;;;;;;;7.00;3.33;;;;;;;28.61;38.41;95099.03;5069067;28;20044;-75
2022/08/05 09:04:27;;;;;;;3.75;2.47;;;;;;;28.56;37.21;95091.25;5067114;28;20052;-75
2022/08/05 09:06:56;;;;;;;4.38;3.20;;;;;;;28.71;37.63;95082.47;5072821;28;20047;-75
2022/08/05 09:09:24;;;;;;;3.95;3.13;;;;;;;28.91;36.24;95090.66;5089472;28;20055;-75
2022/08/05 09:12:03;;;;;;;3.22;2.90;;;;;;;28.71;36.43;95077.13;5084654;28;20036;-75
2022/08/05 09:14:46;;;;;;;7.70;3.42;;;;;;;29.02;37.10;95078.31;5071100;28;20671;-75
2022/08/05 09:17:30;;;;;;;;;;;;;;;29.10;36.87;95074.72;5098297;27;20048;-75
2022/08/05 09:20:14;;;;;;;;;;;;;;;29.23;37.44;95080.06;5087646;28;20391;-75
2022/08/05 09:23:06;;;;;;;5.18;2.97;;;;;;;29.40;35.84;95074.34;5078016;28;20453;-75
2022/08/05 09:25:35;;;;;;;6.13;2.90;;;;;;;29.37;36.14;95037.50;5081327;28;20040;-75
2022/08/05 09:28:26;;;;;;;3.13;2.85;;;;;;;29.81;35.24;95066.91;5088084;28;20031;-75
2022/08/05 09:31:08;;;;;;;8.90;3.75;;;;;;;30.27;35.16;95064.47;5066431;28;20203;-75
2022/08/05 09:34:04;;;;;;;6.68;3.45;;;;;;;30.31;34.33;95062.63;5090703;28;20054;-75
2022/08/05 09:36:37;;;;;;;4.38;2.88;;;;;;;30.47;32.86;95061.84;5067006;28;20040;-71
2022/08/05 09:39:23;;;;;;;3.35;3.03;;;;;;;30.68;33.89;95059.56;5084837;28;20100;-70
2022/08/05 09:42:10;;;;;;;7.05;3.20;;;;;;;30.98;32.87;95056.31;5078510;28;20481;-69
2022/08/05 09:44:53;;;;;;;4.32;3.10;;;;;;;31.23;32.70;95055.97;5079982;28;20055;-69
2022/08/05 09:47:26;;;;;;;5.40;2.63;;;;;;;31.03;31.76;95042.56;5078879;28;20041;-69
2022/08/05 09:50:04;;;;;;;6.47;2.85;;;;;;;31.00;32.45;95047.88;5085676;28;20048;-69
2022/08/05 09:52:35;;;;;;;6.18;3.40;;;;;;;31.01;32.33;95039.47;5082409;28;20116;-69
2022/08/05 09:55:11;;;;;;;5.75;2.78;;;;;;;30.93;32.64;95043.16;5092810;27;20548;-71
2022/08/05 09:57:58;;;;;;;3.00;2.70;;;;;;;31.20;31.34;95048.63;5082449;28;20036;-69
2022/08/05 10:00:26;;;;;;;7.00;2.65;;;;;;;31.36;32.62;95045.81;5086283;28;20058;-69
2022/08/05 10:02:56;;;;;;;3.33;2.90;;;;;;;31.39;30.87;95053.94;5094143;27;20043;-69
2022/08/05 10:05:26;;;;;;;3.05;2.70;;;;;;;31.40;31.46;95044.75;5078858;28;20051;-69
2022/08/05 10:07:57;;;;;;;6.78;3.28;;;;;;;31.70;30.62;95046.75;5062517;28;20036;-69
2022/08/05 10:10:47;;;;;;;3.55;2.92;;;;;;;32.03;29.41;95034.53;5082441;28;20052;-70
2022/08/05 10:13:37;;;;;;;7.50;2.85;;;;;;;32.48;30.42;95029.38;5080739;28;20036;-70
2022/08/05 10:16:32;;;;;;;4.00;2.75;;;;;;;32.58;29.31;95040.28;5090183;28;20059;-70
2022/08/05 10:19:04;;;;;;;6.78;3.65;;;;;;;33.04;28.89;95038.47;5083996;28;20067;-70
2022/08/05 10:21:35;;;;;;;6.90;3.50;;;;;;;32.91;28.67;95033.31;5068165;28;20050;-70
2022/08/05 10:24:12;;;;;;;3.70;3.40;;;;;;;32.68;28.72;95027.31;5085634;28;20471;-73
2022/08/05 10:26:42;;;;;;;7.60;3.20;;;;;;;32.49;28.50;95030.94;5076908;28;20047;-74
2022/08/05 10:29:20;;;;;;;11.68;4.00;;;;;;;32.79;29.33;95020.13;5083048;28;20134;-74
2022/08/05 10:32:07;;;;;;;9.57;4.00;;;;;;;33.31;28.16;95021.03;5096483;28;20536;-73
2022/08/05 10:34:57;;;;;;;5.18;3.60;;;;;;;33.87;27.88;95029.16;5094597;28;20047;-73
2022/08/05 10:37:30;;;;;;;6.03;5.43;;;;;;;34.07;28.09;95022.34;5086156;28;20044;-72
2022/08/05 10:40:23;;;;;;;6.45;5.15;;;;;;;34.30;26.14;95034.81;5088761;28;20050;-72
2022/08/05 10:43:06;;;;;;;4.15;3.78;;;;;;;34.09;25.61;95022.72;5089498;28;20051;-72
2022/08/05 10:45:38;;;;;;;7.10;3.50;;;;;;;33.87;25.53;95029.16;5067191;28;20043;-72
2022/08/05 10:48:37;;;;;;;6.10;3.60;;;;;;;33.61;26.55;95017.38;5085452;28;20094;-72
2022/08/05 10:51:24;;;;;;;4.55;3.10;;;;;;;34.18;25.53;95010.84;5083629;28;20040;-72
2022/08/05 10:54:00;;;;;;;3.60;3.30;;;;;;;34.42;25.24;95009.41;5089639;28;21073;-72
2022/08/05 10:56:48;;;;;;;3.88;3.47;;;;;;;34.67;25.47;95014.88;5065171;28;20047;-72
2022/08/05 10:59:25;;;;;;;3.80;2.92;;;;;;;35.09;24.80;94997.22;5070705;28;20062;-72
2022/08/05 11:02:13;;;;;;;;;;;;;;;35.69;23.75;95006.53;5081716;28;20039;-73
2022/08/05 11:05:04;;;;;;;2.80;2.47;;;;;;;36.43;22.33;95008.69;5086917;28;19985;-73
2022/08/05 11:07:33;;;;;;;4.47;2.53;;;;;;;36.85;21.93;95004.25;5065285;28;20040;-72
2022/08/05 11:10:22;;;;;;;3.75;2.88;;;;;;;36.82;22.33;95003.09;5068843;28;20531;-72
2022/08/05 11:12:55;;;;;;;6.30;2.95;;;;;;;37.13;22.44;95011.41;5051920;28;20568;-72
2022/08/05 11:15:33;;;;;;;5.05;3.03;;;;;;;37.68;20.08;95007.16;5063918;28;20655;-68
2022/08/05 11:18:25;;;;;;;3.33;2.83;;;;;;;37.88;20.70;95010.06;5080757;28;20046;-68
2022/08/05 11:20:52;;;;;;;4.50;2.60;;;;;;;37.65;19.39;94994.38;5082729;28;20044;-68
2022/08/05 11:23:35;;;;;;;4.53;3.08;;;;;;;37.63;19.56;95000.19;5078047;28;20040;-68
2022/08/05 11:26:24;;;;;;;3.00;2.55;;;;;;;37.48;20.29;94994.09;5086922;28;20089;-68
2022/08/05 11:29:03;;;;;;;4.25;2.78;;;;;;;37.90;19.35;94998.78;5082834;28;20070;-68
2022/08/05 11:31:43;;;;;;;4.68;2.40;;;;;;;38.06;18.97;95001.72;5089241;28;20048;-69
2022/08/05 11:34:39;;;;;;;3.10;2.55;;;;;;;38.00;19.97;94997.91;5086131;28;20028;-69
2022/08/05 11:37:38;;;;;;;3.03;2.72;;;;;;;37.96;20.50;94999.88;5080889;28;20703;-69
2022/08/05 11:41:00;;;;;;;3.33;2.45;;;;;;;38.63;19.00;95001.09;5061993;28;20032;-68
2022/08/05 11:43:54;;;;;;;5.22;2.55;;;;;;;38.90;18.26;94994.88;5063700;28;20051;-68
2022/08/05 11:46:34;;;;;;;4.18;2.72;;;;;;;38.67;19.68;94992.13;5070169;28;20040;-68
2022/08/05 11:49:03;;;;;;;2.70;2.50;;;;;;;38.47;19.72;94992.72;5079765;28;20126;-68
2022/08/05 11:51:30;;;;;;;7.88;2.85;;;;;;;38.21;20.56;94992.25;5079937;28;20052;-69
2022/08/05 11:54:24;;;;;;;6.00;2.28;;;;;;;37.87;19.77;94987.56;5081619;28;20043;-68
2022/08/05 11:57:02;;;;;;;8.23;2.83;;;;;;;37.59;20.25;94987.81;5080328;28;20051;-68
2022/08/05 11:59:49;;;;;;;3.58;2.67;;;;;;;36.80;19.96;94982.94;5076934;28;20075;-67
2022/08/05 12:02:16;;;;;;;3.55;2.63;;;;;;;36.45;19.74;94980.00;5086231;28;20040;-68
2022/08/05 12:04:57;;;;;;;3.38;3.00;;;;;;;36.17;20.42;94970.78;5085034;28;20040;-66
2022/08/05 12:07:31;;;;;;;3.83;2.60;;;;;;;36.55;20.10;94972.97;5081757;28;20136;-67
2022/08/05 12:10:21;;;;;;;3.35;2.28;;;;;;;35.84;20.28;94966.66;5081471;28;20085;-67
2022/08/05 12:12:51;;;;;;;3.53;2.78;;;;;;;36.41;20.08;94962.19;5078747;28;20506;-67
2022/08/05 12:15:25;;;;;;;3.38;2.92;;;;;;;36.99;19.76;94958.00;5080921;28;20159;-67
2022/08/05 12:18:05;;;;;;;4.20;3.80;;;;;;;37.27;19.47;94962.47;5083998;28;20054;-67
2022/08/05 12:20:38;;;;;;;3.00;2.65;;;;;;;37.24;20.23;94957.06;5082134;28;20043;-67